Austin, Pennsylvania
Current Conditions -  °F | °C
As of 5:53 AM on Wednesday 26 Nov 2014 (Local Time) from KBFD Reporting Station
Overcast Overcast  
Wind Chill: 30°   Ceiling: 1800
Heat Index: 30°   Visibility: 10mi
Dew Point: 23°   Wind: 3mph
Humidity: 75%   Direction: 70°ENE
Pressure: 30.1"   Gusts: NA
Location:  41.63°N, 78.09°W
Report Text: KBFD 261053Z AUTO 07003KT 10SM OVC018 M01/M05 A3010 RMK AO2 SLP210 T10111050
Loading
Personal Weather Stations






























Interactive Weather Map New forecast layout! Learn more

10-Day Weather Forecast

Advertisements
Track Severe Weather on mobile